sensor_id;sensor_type;location;lat;lon;timestamp;temperature;humidity
13464;DHT22;6804;48.774;9.174;2024-02-15T00:01:49;13.30;99.90
13464;DHT22;6804;48.774;9.174;2024-02-15T00:04:17;13.20;99.90
13464;DHT22;6804;48.774;9.174;2024-02-15T00:06:45;13.20;99.90
13464;DHT22;6804;48.774;9.174;2024-02-15T00:09:13;13.20;99.90
13464;DHT22;6804;48.774;9.174;2024-02-15T00:11:41;13.20;99.90
13464;DHT22;6804;48.774;9.174;2024-02-15T00:14:14;13.20;99.90
13464;DHT22;6804;48.774;9.174;2024-02-15T00:16:43;13.20;99.90
13464;DHT22;6804;48.774;9.174;2024-02-15T00:19:12;13.10;99.90
13464;DHT22;6804;48.774;9.174;2024-02-15T00:21:45;13.10;99.90
13464;DHT22;6804;48.774;9.174;2024-02-15T00:24:13;13.10;99.90
13464;DHT22;6804;48.774;9.174;2024-02-15T00:26:45;13.10;99.90
13464;DHT22;6804;48.774;9.174;2024-02-15T00:29:13;13.10;99.90
13464;DHT22;6804;48.774;9.174;2024-02-15T00:31:42;13.10;99.90
13464;DHT22;6804;48.774;9.174;2024-02-15T00:34:14;13.10;99.90
13464;DHT22;6804;48.774;9.174;2024-02-15T00:36:44;13.10;99.90
13464;DHT22;6804;48.774;9.174;2024-02-15T00:39:15;13.10;99.90
13464;DHT22;6804;48.774;9.174;2024-02-15T00:41:44;13.10;99.90
13464;DHT22;6804;48.774;9.174;2024-02-15T00:44:12;13.10;99.90
13464;DHT22;6804;48.774;9.174;2024-02-15T00:46:39;13.00;99.90
13464;DHT22;6804;48.774;9.174;2024-02-15T00:49:08;13.10;99.90
13464;DHT22;6804;48.774;9.174;2024-02-15T00:51:36;13.10;99.90
13464;DHT22;6804;48.774;9.174;2024-02-15T00:54:04;13.10;99.90
13464;DHT22;6804;48.774;9.174;2024-02-15T00:56:34;13.10;99.90
13464;DHT22;6804;48.774;9.174;2024-02-15T00:59:02;13.10;99.90
13464;DHT22;6804;48.774;9.174;2024-02-15T01:01:31;13.10;99.90
13464;DHT22;6804;48.774;9.174;2024-02-15T01:04:03;13.10;99.90
13464;DHT22;6804;48.774;9.174;2024-02-15T01:06:35;13.10;99.90
13464;DHT22;6804;48.774;9.174;2024-02-15T01:09:03;13.10;99.90
13464;DHT22;6804;48.774;9.174;2024-02-15T01:11:33;13.00;99.90
13464;DHT22;6804;48.774;9.174;2024-02-15T01:14:03;13.00;99.90
13464;DHT22;6804;48.774;9.174;2024-02-15T01:16:35;13.00;99.90
13464;DHT22;6804;48.774;9.174;2024-02-15T01:19:03;13.00;99.90
13464;DHT22;6804;48.774;9.174;2024-02-15T01:21:35;13.00;99.90
13464;DHT22;6804;48.774;9.174;2024-02-15T01:24:05;13.00;99.90
13464;DHT22;6804;48.774;9.174;2024-02-15T01:26:33;13.00;99.90
13464;DHT22;6804;48.774;9.174;2024-02-15T01:29:01;12.90;99.90
13464;DHT22;6804;48.774;9.174;2024-02-15T01:31:29;12.90;99.90
13464;DHT22;6804;48.774;9.174;2024-02-15T01:33:56;12.90;99.90
13464;DHT22;6804;48.774;9.174;2024-02-15T01:36:24;12.90;99.90
13464;DHT22;6804;48.774;9.174;2024-02-15T01:38:53;12.90;99.90
13464;DHT22;6804;48.774;9.174;2024-02-15T01:41:20;12.80;99.90
13464;DHT22;6804;48.774;9.174;2024-02-15T01:43:48;12.80;99.90
13464;DHT22;6804;48.774;9.174;2024-02-15T01:46:16;12.80;99.90
13464;DHT22;6804;48.774;9.174;2024-02-15T01:48:44;12.80;99.90
13464;DHT22;6804;48.774;9.174;2024-02-15T01:51:14;12.80;99.90
13464;DHT22;6804;48.774;9.174;2024-02-15T01:53:44;12.70;99.90
13464;DHT22;6804;48.774;9.174;2024-02-15T01:56:14;12.70;99.90
13464;DHT22;6804;48.774;9.174;2024-02-15T01:58:44;12.70;99.90
13464;DHT22;6804;48.774;9.174;2024-02-15T02:01:18;12.70;99.90
13464;DHT22;6804;48.774;9.174;2024-02-15T02:03:46;12.70;99.90
13464;DHT22;6804;48.774;9.174;2024-02-15T02:06:14;12.60;99.90
13464;DHT22;6804;48.774;9.174;2024-02-15T02:08:42;12.70;99.90
13464;DHT22;6804;48.774;9.174;2024-02-15T02:11:12;12.70;99.90
13464;DHT22;6804;48.774;9.174;2024-02-15T02:13:40;12.70;99.90
13464;DHT22;6804;48.774;9.174;2024-02-15T02:16:25;12.70;99.90
13464;DHT22;6804;48.774;9.174;2024-02-15T02:18:54;12.60;99.90
13464;DHT22;6804;48.774;9.174;2024-02-15T02:21:21;12.60;99.90
13464;DHT22;6804;48.774;9.174;2024-02-15T02:23:53;12.60;99.90
13464;DHT22;6804;48.774;9.174;2024-02-15T02:26:24;12.60;99.90
13464;DHT22;6804;48.774;9.174;2024-02-15T02:28:58;12.60;99.90
13464;DHT22;6804;48.774;9.174;2024-02-15T02:31:30;12.50;99.90
13464;DHT22;6804;48.774;9.174;2024-02-15T02:33:59;12.50;99.90
13464;DHT22;6804;48.774;9.174;2024-02-15T02:36:26;12.50;99.90
13464;DHT22;6804;48.774;9.174;2024-02-15T02:38:58;12.40;99.90
13464;DHT22;6804;48.774;9.174;2024-02-15T02:41:28;12.40;99.90
13464;DHT22;6804;48.774;9.174;2024-02-15T02:43:58;12.40;99.90
13464;DHT22;6804;48.774;9.174;2024-02-15T02:46:28;12.40;99.90
13464;DHT22;6804;48.774;9.174;2024-02-15T02:48:57;12.30;99.90
13464;DHT22;6804;48.774;9.174;2024-02-15T02:51:30;12.30;99.90
13464;DHT22;6804;48.774;9.174;2024-02-15T02:53:57;12.20;99.90
13464;DHT22;6804;48.774;9.174;2024-02-15T02:56:29;12.20;99.90
13464;DHT22;6804;48.774;9.174;2024-02-15T02:58:59;12.20;99.90
13464;DHT22;6804;48.774;9.174;2024-02-15T03:01:29;12.10;99.90
13464;DHT22;6804;48.774;9.174;2024-02-15T03:03:59;12.10;99.90
13464;DHT22;6804;48.774;9.174;2024-02-15T03:06:27;12.10;99.90
13464;DHT22;6804;48.774;9.174;2024-02-15T03:08:57;12.10;99.90
13464;DHT22;6804;48.774;9.174;2024-02-15T03:11:28;12.10;99.90
13464;DHT22;6804;48.774;9.174;2024-02-15T03:14:00;12.00;99.90
13464;DHT22;6804;48.774;9.174;2024-02-15T03:16:29;12.00;99.90
13464;DHT22;6804;48.774;9.174;2024-02-15T03:18:57;11.90;99.90
13464;DHT22;6804;48.774;9.174;2024-02-15T03:21:27;11.90;99.90
13464;DHT22;6804;48.774;9.174;2024-02-15T03:24:00;11.80;99.90
13464;DHT22;6804;48.774;9.174;2024-02-15T03:26:33;11.80;99.90
13464;DHT22;6804;48.774;9.174;2024-02-15T03:29:02;11.70;99.90
13464;DHT22;6804;48.774;9.174;2024-02-15T03:31:30;11.70;99.90
13464;DHT22;6804;48.774;9.174;2024-02-15T03:33:57;11.70;99.90
13464;DHT22;6804;48.774;9.174;2024-02-15T03:36:25;11.70;99.90
13464;DHT22;6804;48.774;9.174;2024-02-15T03:38:55;11.60;99.90
13464;DHT22;6804;48.774;9.174;2024-02-15T03:41:29;11.70;99.90
13464;DHT22;6804;48.774;9.174;2024-02-15T03:44:00;11.60;99.90
13464;DHT22;6804;48.774;9.174;2024-02-15T03:46:27;11.60;99.90
13464;DHT22;6804;48.774;9.174;2024-02-15T03:48:58;11.50;99.90
13464;DHT22;6804;48.774;9.174;2024-02-15T03:51:27;11.60;99.90
13464;DHT22;6804;48.774;9.174;2024-02-15T03:53:54;11.50;99.90
13464;DHT22;6804;48.774;9.174;2024-02-15T03:56:22;11.40;99.90
13464;DHT22;6804;48.774;9.174;2024-02-15T03:58:52;11.40;99.90
13464;DHT22;6804;48.774;9.174;2024-02-15T04:01:21;11.40;99.90
13464;DHT22;6804;48.774;9.174;2024-02-15T04:03:51;11.40;99.90
13464;DHT22;6804;48.774;9.174;2024-02-15T04:06:19;11.40;99.90
13464;DHT22;6804;48.774;9.174;2024-02-15T04:08:48;11.40;99.90
13464;DHT22;6804;48.774;9.174;2024-02-15T04:11:15;11.40;99.90
13464;DHT22;6804;48.774;9.174;2024-02-15T04:13:45;11.40;99.90
13464;DHT22;6804;48.774;9.174;2024-02-15T04:16:12;11.40;99.90
13464;DHT22;6804;48.774;9.174;2024-02-15T04:18:45;11.30;99.90
13464;DHT22;6804;48.774;9.174;2024-02-15T04:21:13;11.30;99.90
13464;DHT22;6804;48.774;9.174;2024-02-15T04:23:42;11.30;99.90
13464;DHT22;6804;48.774;9.174;2024-02-15T04:26:11;11.30;99.90
13464;DHT22;6804;48.774;9.174;2024-02-15T04:28:39;11.20;99.90
13464;DHT22;6804;48.774;9.174;2024-02-15T04:31:14;11.30;99.90
13464;DHT22;6804;48.774;9.174;2024-02-15T04:33:42;11.30;99.90
13464;DHT22;6804;48.774;9.174;2024-02-15T04:36:10;11.30;99.90
13464;DHT22;6804;48.774;9.174;2024-02-15T04:38:41;11.30;99.90
13464;DHT22;6804;48.774;9.174;2024-02-15T04:41:10;11.30;99.90
13464;DHT22;6804;48.774;9.174;2024-02-15T04:43:40;11.40;99.90
13464;DHT22;6804;48.774;9.174;2024-02-15T04:46:10;11.40;99.90
13464;DHT22;6804;48.774;9.174;2024-02-15T04:48:38;11.50;99.90
13464;DHT22;6804;48.774;9.174;2024-02-15T04:51:12;11.40;99.90
13464;DHT22;6804;48.774;9.174;2024-02-15T04:53:42;11.50;99.90
13464;DHT22;6804;48.774;9.174;2024-02-15T04:56:12;11.50;99.90
13464;DHT22;6804;48.774;9.174;2024-02-15T04:58:41;11.50;99.90
13464;DHT22;6804;48.774;9.174;2024-02-15T05:01:14;11.50;99.90
13464;DHT22;6804;48.774;9.174;2024-02-15T05:03:42;11.50;99.90
13464;DHT22;6804;48.774;9.174;2024-02-15T05:06:14;11.50;99.90
13464;DHT22;6804;48.774;9.174;2024-02-15T05:08:45;11.50;99.90
13464;DHT22;6804;48.774;9.174;2024-02-15T05:11:13;11.50;99.90
13464;DHT22;6804;48.774;9.174;2024-02-15T05:13:43;11.50;99.90
13464;DHT22;6804;48.774;9.174;2024-02-15T05:16:13;11.60;99.90
13464;DHT22;6804;48.774;9.174;2024-02-15T05:18:40;11.60;99.90
13464;DHT22;6804;48.774;9.174;2024-02-15T05:21:08;11.60;99.90
13464;DHT22;6804;48.774;9.174;2024-02-15T05:23:38;11.60;99.90
13464;DHT22;6804;48.774;9.174;2024-02-15T05:26:13;11.60;99.90
13464;DHT22;6804;48.774;9.174;2024-02-15T05:28:42;11.60;99.90
13464;DHT22;6804;48.774;9.174;2024-02-15T05:31:12;11.70;99.90
13464;DHT22;6804;48.774;9.174;2024-02-15T05:33:43;11.60;99.90
13464;DHT22;6804;48.774;9.174;2024-02-15T05:36:14;11.70;99.90
13464;DHT22;6804;48.774;9.174;2024-02-15T05:38:43;11.70;99.90
13464;DHT22;6804;48.774;9.174;2024-02-15T05:41:11;11.80;99.90
13464;DHT22;6804;48.774;9.174;2024-02-15T05:43:39;11.80;99.90
13464;DHT22;6804;48.774;9.174;2024-02-15T05:46:10;11.80;99.90
13464;DHT22;6804;48.774;9.174;2024-02-15T05:48:39;11.80;99.90
13464;DHT22;6804;48.774;9.174;2024-02-15T05:51:10;11.80;99.90
13464;DHT22;6804;48.774;9.174;2024-02-15T05:53:38;11.90;99.90
13464;DHT22;6804;48.774;9.174;2024-02-15T05:56:09;11.80;99.90
13464;DHT22;6804;48.774;9.174;2024-02-15T05:58:37;11.90;99.90
13464;DHT22;6804;48.774;9.174;2024-02-15T06:01:06;11.90;99.90
13464;DHT22;6804;48.774;9.174;2024-02-15T06:03:38;11.90;99.90
13464;DHT22;6804;48.774;9.174;2024-02-15T06:06:06;11.90;99.90
13464;DHT22;6804;48.774;9.174;2024-02-15T06:08:34;11.80;99.90
13464;DHT22;6804;48.774;9.174;2024-02-15T06:11:02;11.80;99.90
13464;DHT22;6804;48.774;9.174;2024-02-15T06:13:34;11.80;99.90
13464;DHT22;6804;48.774;9.174;2024-02-15T06:16:02;11.80;99.90
13464;DHT22;6804;48.774;9.174;2024-02-15T06:18:35;11.80;99.90
13464;DHT22;6804;48.774;9.174;2024-02-15T06:21:03;11.80;99.90
13464;DHT22;6804;48.774;9.174;2024-02-15T06:23:34;11.70;99.90
13464;DHT22;6804;48.774;9.174;2024-02-15T06:26:06;11.80;99.90
13464;DHT22;6804;48.774;9.174;2024-02-15T06:28:35;11.80;99.90
13464;DHT22;6804;48.774;9.174;2024-02-15T06:31:19;11.80;99.90
13464;DHT22;6804;48.774;9.174;2024-02-15T06:34:06;11.70;99.90
13464;DHT22;6804;48.774;9.174;2024-02-15T06:36:56;11.70;99.90
13464;DHT22;6804;48.774;9.174;2024-02-15T06:39:46;11.80;99.90
13464;DHT22;6804;48.774;9.174;2024-02-15T06:42:18;11.80;99.90
13464;DHT22;6804;48.774;9.174;2024-02-15T06:44:48;11.80;99.90
13464;DHT22;6804;48.774;9.174;2024-02-15T06:47:15;11.80;99.90
13464;DHT22;6804;48.774;9.174;2024-02-15T06:49:46;11.80;99.90
13464;DHT22;6804;48.774;9.174;2024-02-15T06:52:16;11.80;99.90
13464;DHT22;6804;48.774;9.174;2024-02-15T06:54:46;11.80;99.90
13464;DHT22;6804;48.774;9.174;2024-02-15T06:57:15;11.80;99.90
13464;DHT22;6804;48.774;9.174;2024-02-15T06:59:48;11.80;99.90
13464;DHT22;6804;48.774;9.174;2024-02-15T07:02:15;11.80;99.90
13464;DHT22;6804;48.774;9.174;2024-02-15T07:04:46;11.80;99.90
13464;DHT22;6804;48.774;9.174;2024-02-15T07:07:15;11.80;99.90
13464;DHT22;6804;48.774;9.174;2024-02-15T07:09:46;11.80;99.90
13464;DHT22;6804;48.774;9.174;2024-02-15T07:12:15;11.80;99.90
13464;DHT22;6804;48.774;9.174;2024-02-15T07:14:46;11.80;99.90
13464;DHT22;6804;48.774;9.174;2024-02-15T07:17:15;11.80;99.90
13464;DHT22;6804;48.774;9.174;2024-02-15T07:19:46;11.80;99.90
13464;DHT22;6804;48.774;9.174;2024-02-15T07:22:15;11.80;99.90
13464;DHT22;6804;48.774;9.174;2024-02-15T07:24:45;11.80;99.90
13464;DHT22;6804;48.774;9.174;2024-02-15T07:27:15;11.80;99.90
13464;DHT22;6804;48.774;9.174;2024-02-15T07:29:44;11.80;99.90
13464;DHT22;6804;48.774;9.174;2024-02-15T07:32:16;11.80;99.90
13464;DHT22;6804;48.774;9.174;2024-02-15T07:34:47;11.80;99.90
13464;DHT22;6804;48.774;9.174;2024-02-15T07:37:15;11.80;99.90
13464;DHT22;6804;48.774;9.174;2024-02-15T07:39:43;11.90;99.90
13464;DHT22;6804;48.774;9.174;2024-02-15T07:42:11;11.90;99.90
13464;DHT22;6804;48.774;9.174;2024-02-15T07:44:38;11.90;99.90
13464;DHT22;6804;48.774;9.174;2024-02-15T07:47:08;12.00;99.90
13464;DHT22;6804;48.774;9.174;2024-02-15T07:49:41;12.10;99.90
13464;DHT22;6804;48.774;9.174;2024-02-15T07:52:09;12.20;99.90
13464;DHT22;6804;48.774;9.174;2024-02-15T07:54:36;12.20;99.90
13464;DHT22;6804;48.774;9.174;2024-02-15T07:57:16;12.30;99.90
13464;DHT22;6804;48.774;9.174;2024-02-15T07:59:43;12.30;99.90
13464;DHT22;6804;48.774;9.174;2024-02-15T08:02:18;12.50;99.90
13464;DHT22;6804;48.774;9.174;2024-02-15T08:04:49;12.60;99.90
13464;DHT22;6804;48.774;9.174;2024-02-15T08:07:17;12.60;99.90
13464;DHT22;6804;48.774;9.174;2024-02-15T08:09:46;12.70;99.90
13464;DHT22;6804;48.774;9.174;2024-02-15T08:12:16;12.90;99.90
13464;DHT22;6804;48.774;9.174;2024-02-15T08:14:48;13.00;99.90
13464;DHT22;6804;48.774;9.174;2024-02-15T08:17:15;13.10;99.90
13464;DHT22;6804;48.774;9.174;2024-02-15T08:19:43;13.30;99.90
13464;DHT22;6804;48.774;9.174;2024-02-15T08:22:20;13.50;99.90
13464;DHT22;6804;48.774;9.174;2024-02-15T08:24:51;13.60;99.90
13464;DHT22;6804;48.774;9.174;2024-02-15T08:27:19;13.60;99.90
13464;DHT22;6804;48.774;9.174;2024-02-15T08:29:50;13.70;99.90
13464;DHT22;6804;48.774;9.174;2024-02-15T08:32:18;13.80;99.90
13464;DHT22;6804;48.774;9.174;2024-02-15T08:34:49;13.90;99.90
13464;DHT22;6804;48.774;9.174;2024-02-15T08:37:20;14.00;99.90
13464;DHT22;6804;48.774;9.174;2024-02-15T08:39:58;14.10;99.90
13464;DHT22;6804;48.774;9.174;2024-02-15T08:42:27;14.30;99.90
13464;DHT22;6804;48.774;9.174;2024-02-15T08:44:55;14.30;99.90
13464;DHT22;6804;48.774;9.174;2024-02-15T08:47:28;14.20;99.90
13464;DHT22;6804;48.774;9.174;2024-02-15T08:50:00;13.80;99.90
13464;DHT22;6804;48.774;9.174;2024-02-15T08:52:30;13.60;99.90
13464;DHT22;6804;48.774;9.174;2024-02-15T08:54:58;13.70;99.90
13464;DHT22;6804;48.774;9.174;2024-02-15T08:57:29;13.70;99.90
13464;DHT22;6804;48.774;9.174;2024-02-15T09:00:01;13.80;99.90
13464;DHT22;6804;48.774;9.174;2024-02-15T09:02:30;13.90;99.90
13464;DHT22;6804;48.774;9.174;2024-02-15T09:04:59;13.90;99.90
13464;DHT22;6804;48.774;9.174;2024-02-15T09:07:31;14.10;99.90
13464;DHT22;6804;48.774;9.174;2024-02-15T09:09:58;14.20;99.90
13464;DHT22;6804;48.774;9.174;2024-02-15T09:12:26;14.30;99.90
13464;DHT22;6804;48.774;9.174;2024-02-15T09:14:54;14.40;99.90
13464;DHT22;6804;48.774;9.174;2024-02-15T09:17:21;14.60;99.90
13464;DHT22;6804;48.774;9.174;2024-02-15T09:19:49;14.70;99.90
13464;DHT22;6804;48.774;9.174;2024-02-15T09:22:23;14.80;99.90
13464;DHT22;6804;48.774;9.174;2024-02-15T09:24:54;14.80;99.90
13464;DHT22;6804;48.774;9.174;2024-02-15T09:27:22;14.90;99.90
13464;DHT22;6804;48.774;9.174;2024-02-15T09:29:49;14.90;99.90
13464;DHT22;6804;48.774;9.174;2024-02-15T09:32:20;15.00;99.90
13464;DHT22;6804;48.774;9.174;2024-02-15T09:34:50;15.10;99.90
13464;DHT22;6804;48.774;9.174;2024-02-15T09:37:25;15.20;99.90
13464;DHT22;6804;48.774;9.174;2024-02-15T09:39:55;15.20;99.90
13464;DHT22;6804;48.774;9.174;2024-02-15T09:42:30;15.30;99.90
13464;DHT22;6804;48.774;9.174;2024-02-15T09:45:00;15.30;99.90
13464;DHT22;6804;48.774;9.174;2024-02-15T09:47:33;15.40;99.90
13464;DHT22;6804;48.774;9.174;2024-02-15T09:50:06;15.50;99.90
13464;DHT22;6804;48.774;9.174;2024-02-15T09:52:45;15.50;99.90
13464;DHT22;6804;48.774;9.174;2024-02-15T09:55:14;15.50;99.90
13464;DHT22;6804;48.774;9.174;2024-02-15T09:57:45;15.60;99.90
13464;DHT22;6804;48.774;9.174;2024-02-15T10:00:14;15.70;99.90
13464;DHT22;6804;48.774;9.174;2024-02-15T10:02:43;15.80;99.90
13464;DHT22;6804;48.774;9.174;2024-02-15T10:05:12;15.90;99.90
13464;DHT22;6804;48.774;9.174;2024-02-15T10:07:43;15.80;99.90
13464;DHT22;6804;48.774;9.174;2024-02-15T10:10:20;16.00;99.90
13464;DHT22;6804;48.774;9.174;2024-02-15T10:12:48;16.10;99.90
13464;DHT22;6804;48.774;9.174;2024-02-15T10:15:33;16.20;99.90
13464;DHT22;6804;48.774;9.174;2024-02-15T10:18:02;16.20;99.90
13464;DHT22;6804;48.774;9.174;2024-02-15T10:20:33;16.20;99.90
13464;DHT22;6804;48.774;9.174;2024-02-15T10:23:14;16.30;99.90
13464;DHT22;6804;48.774;9.174;2024-02-15T10:25:44;16.30;99.90
13464;DHT22;6804;48.774;9.174;2024-02-15T10:28:12;16.20;99.90
13464;DHT22;6804;48.774;9.174;2024-02-15T10:30:43;16.20;99.90
13464;DHT22;6804;48.774;9.174;2024-02-15T10:33:18;16.30;99.90
13464;DHT22;6804;48.774;9.174;2024-02-15T10:35:47;16.30;99.90
13464;DHT22;6804;48.774;9.174;2024-02-15T10:38:17;16.40;99.90
13464;DHT22;6804;48.774;9.174;2024-02-15T10:40:47;16.30;99.90
13464;DHT22;6804;48.774;9.174;2024-02-15T10:43:17;16.10;99.90
13464;DHT22;6804;48.774;9.174;2024-02-15T10:45:50;16.00;99.90
13464;DHT22;6804;48.774;9.174;2024-02-15T10:48:22;15.70;99.90
13464;DHT22;6804;48.774;9.174;2024-02-15T10:50:53;15.60;99.90
13464;DHT22;6804;48.774;9.174;2024-02-15T10:53:25;15.80;99.90
13464;DHT22;6804;48.774;9.174;2024-02-15T10:55:59;16.00;99.90
13464;DHT22;6804;48.774;9.174;2024-02-15T10:58:32;16.10;99.90
13464;DHT22;6804;48.774;9.174;2024-02-15T11:01:06;16.40;99.90
13464;DHT22;6804;48.774;9.174;2024-02-15T11:03:37;16.70;99.90
13464;DHT22;6804;48.774;9.174;2024-02-15T11:06:07;16.90;99.90
13464;DHT22;6804;48.774;9.174;2024-02-15T11:08:37;17.10;99.90
13464;DHT22;6804;48.774;9.174;2024-02-15T11:11:08;17.30;99.90
13464;DHT22;6804;48.774;9.174;2024-02-15T11:13:38;17.50;99.90
13464;DHT22;6804;48.774;9.174;2024-02-15T11:16:08;17.60;99.90
13464;DHT22;6804;48.774;9.174;2024-02-15T11:18:44;17.70;99.90
13464;DHT22;6804;48.774;9.174;2024-02-15T11:21:15;17.90;99.90
13464;DHT22;6804;48.774;9.174;2024-02-15T11:23:44;17.90;99.90
13464;DHT22;6804;48.774;9.174;2024-02-15T11:29:52;17.70;99.90
13464;DHT22;6804;48.774;9.174;2024-02-15T11:32:37;17.20;99.90
13464;DHT22;6804;48.774;9.174;2024-02-15T11:35:06;16.90;99.90
13464;DHT22;6804;48.774;9.174;2024-02-15T11:37:57;17.10;99.90
13464;DHT22;6804;48.774;9.174;2024-02-15T11:41:06;17.10;99.90
13464;DHT22;6804;48.774;9.174;2024-02-15T11:43:50;17.40;99.90
13464;DHT22;6804;48.774;9.174;2024-02-15T11:46:25;17.30;99.90
13464;DHT22;6804;48.774;9.174;2024-02-15T11:48:57;17.50;99.90
13464;DHT22;6804;48.774;9.174;2024-02-15T11:51:29;17.70;99.90
13464;DHT22;6804;48.774;9.174;2024-02-15T11:54:04;17.80;99.90
13464;DHT22;6804;48.774;9.174;2024-02-15T11:56:56;17.90;99.90
13464;DHT22;6804;48.774;9.174;2024-02-15T11:59:44;18.00;99.90
13464;DHT22;6804;48.774;9.174;2024-02-15T12:02:44;18.10;99.90
13464;DHT22;6804;48.774;9.174;2024-02-15T12:05:29;18.10;99.90
13464;DHT22;6804;48.774;9.174;2024-02-15T12:08:14;18.10;99.90
13464;DHT22;6804;48.774;9.174;2024-02-15T12:11:15;18.20;99.90
13464;DHT22;6804;48.774;9.174;2024-02-15T12:13:59;18.20;99.90
13464;DHT22;6804;48.774;9.174;2024-02-15T12:16:44;18.30;99.90
13464;DHT22;6804;48.774;9.174;2024-02-15T12:19:36;18.30;99.90
13464;DHT22;6804;48.774;9.174;2024-02-15T12:22:06;18.40;99.90
13464;DHT22;6804;48.774;9.174;2024-02-15T12:24:34;18.30;99.90
13464;DHT22;6804;48.774;9.174;2024-02-15T12:27:05;18.20;99.90
13464;DHT22;6804;48.774;9.174;2024-02-15T12:29:36;18.20;99.90
13464;DHT22;6804;48.774;9.174;2024-02-15T12:32:05;18.20;99.90
13464;DHT22;6804;48.774;9.174;2024-02-15T12:34:32;18.20;99.90
13464;DHT22;6804;48.774;9.174;2024-02-15T12:37:07;18.10;99.90
13464;DHT22;6804;48.774;9.174;2024-02-15T12:39:38;18.10;99.90
13464;DHT22;6804;48.774;9.174;2024-02-15T12:42:15;18.10;99.90
13464;DHT22;6804;48.774;9.174;2024-02-15T12:44:47;18.00;99.90
13464;DHT22;6804;48.774;9.174;2024-02-15T12:47:21;17.90;99.90
13464;DHT22;6804;48.774;9.174;2024-02-15T12:50:14;17.90;99.90
13464;DHT22;6804;48.774;9.174;2024-02-15T12:52:45;17.70;99.90
13464;DHT22;6804;48.774;9.174;2024-02-15T12:55:19;17.40;99.90
13464;DHT22;6804;48.774;9.174;2024-02-15T12:57:49;17.20;99.90
13464;DHT22;6804;48.774;9.174;2024-02-15T13:00:18;17.10;99.90
13464;DHT22;6804;48.774;9.174;2024-02-15T13:02:47;16.90;99.90
13464;DHT22;6804;48.774;9.174;2024-02-15T13:05:16;16.90;99.90
13464;DHT22;6804;48.774;9.174;2024-02-15T13:07:47;16.90;99.90
13464;DHT22;6804;48.774;9.174;2024-02-15T13:10:15;17.00;99.90
13464;DHT22;6804;48.774;9.174;2024-02-15T13:12:45;17.10;99.90
13464;DHT22;6804;48.774;9.174;2024-02-15T13:15:15;17.20;99.90
13464;DHT22;6804;48.774;9.174;2024-02-15T13:17:46;17.30;99.90
13464;DHT22;6804;48.774;9.174;2024-02-15T13:20:17;17.40;99.90
13464;DHT22;6804;48.774;9.174;2024-02-15T13:22:50;17.40;99.90
13464;DHT22;6804;48.774;9.174;2024-02-15T13:25:18;17.40;99.90
13464;DHT22;6804;48.774;9.174;2024-02-15T13:27:47;17.40;99.90
13464;DHT22;6804;48.774;9.174;2024-02-15T13:30:15;17.50;99.90
13464;DHT22;6804;48.774;9.174;2024-02-15T13:32:51;17.50;99.90
13464;DHT22;6804;48.774;9.174;2024-02-15T13:35:19;17.60;99.90
13464;DHT22;6804;48.774;9.174;2024-02-15T13:37:52;17.60;99.90
13464;DHT22;6804;48.774;9.174;2024-02-15T13:40:20;17.70;99.90
13464;DHT22;6804;48.774;9.174;2024-02-15T13:42:50;17.70;99.90
13464;DHT22;6804;48.774;9.174;2024-02-15T13:45:21;17.80;99.90
13464;DHT22;6804;48.774;9.174;2024-02-15T13:47:50;17.90;99.90
13464;DHT22;6804;48.774;9.174;2024-02-15T13:50:19;17.90;99.90
13464;DHT22;6804;48.774;9.174;2024-02-15T13:52:47;18.00;99.90
13464;DHT22;6804;48.774;9.174;2024-02-15T13:55:17;17.90;99.90
13464;DHT22;6804;48.774;9.174;2024-02-15T13:57:49;17.80;99.90
13464;DHT22;6804;48.774;9.174;2024-02-15T14:00:18;17.90;99.90
13464;DHT22;6804;48.774;9.174;2024-02-15T14:02:49;17.90;99.90
13464;DHT22;6804;48.774;9.174;2024-02-15T14:05:18;18.00;99.90
13464;DHT22;6804;48.774;9.174;2024-02-15T14:07:50;18.00;99.90
13464;DHT22;6804;48.774;9.174;2024-02-15T14:10:20;18.00;99.90
13464;DHT22;6804;48.774;9.174;2024-02-15T14:12:51;18.10;99.90
13464;DHT22;6804;48.774;9.174;2024-02-15T14:15:21;18.10;99.90
13464;DHT22;6804;48.774;9.174;2024-02-15T14:17:49;18.00;99.90
13464;DHT22;6804;48.774;9.174;2024-02-15T14:20:20;17.90;99.90
13464;DHT22;6804;48.774;9.174;2024-02-15T14:22:50;17.90;99.90
13464;DHT22;6804;48.774;9.174;2024-02-15T14:25:23;17.90;99.90
13464;DHT22;6804;48.774;9.174;2024-02-15T14:27:51;17.90;99.90
13464;DHT22;6804;48.774;9.174;2024-02-15T14:30:22;17.90;99.90
13464;DHT22;6804;48.774;9.174;2024-02-15T14:33:16;17.70;99.90
13464;DHT22;6804;48.774;9.174;2024-02-15T14:35:45;17.60;99.90
13464;DHT22;6804;48.774;9.174;2024-02-15T14:38:13;17.30;99.90
13464;DHT22;6804;48.774;9.174;2024-02-15T14:40:43;17.20;99.90
13464;DHT22;6804;48.774;9.174;2024-02-15T14:43:23;17.10;99.90
13464;DHT22;6804;48.774;9.174;2024-02-15T14:45:52;17.10;99.90
13464;DHT22;6804;48.774;9.174;2024-02-15T14:48:20;17.10;99.90
13464;DHT22;6804;48.774;9.174;2024-02-15T14:50:50;17.10;99.90
13464;DHT22;6804;48.774;9.174;2024-02-15T14:53:18;17.10;99.90
13464;DHT22;6804;48.774;9.174;2024-02-15T14:55:48;17.10;99.90
13464;DHT22;6804;48.774;9.174;2024-02-15T14:58:19;17.10;99.90
13464;DHT22;6804;48.774;9.174;2024-02-15T15:00:48;17.20;99.90
13464;DHT22;6804;48.774;9.174;2024-02-15T15:03:16;17.30;99.90
13464;DHT22;6804;48.774;9.174;2024-02-15T15:05:47;17.30;99.90
13464;DHT22;6804;48.774;9.174;2024-02-15T15:08:32;17.40;99.90
13464;DHT22;6804;48.774;9.174;2024-02-15T15:11:21;17.60;99.90
13464;DHT22;6804;48.774;9.174;2024-02-15T15:14:05;17.70;99.90
13464;DHT22;6804;48.774;9.174;2024-02-15T15:16:33;17.70;99.90
13464;DHT22;6804;48.774;9.174;2024-02-15T15:19:01;17.70;99.90
13464;DHT22;6804;48.774;9.174;2024-02-15T15:21:29;17.70;99.90
13464;DHT22;6804;48.774;9.174;2024-02-15T15:24:01;17.70;99.90
13464;DHT22;6804;48.774;9.174;2024-02-15T15:26:33;17.80;99.90
13464;DHT22;6804;48.774;9.174;2024-02-15T15:29:03;17.80;99.90
13464;DHT22;6804;48.774;9.174;2024-02-15T15:31:32;17.80;99.90
13464;DHT22;6804;48.774;9.174;2024-02-15T15:34:01;17.80;99.90
13464;DHT22;6804;48.774;9.174;2024-02-15T15:36:30;17.70;99.90
13464;DHT22;6804;48.774;9.174;2024-02-15T15:38:59;17.60;99.90
13464;DHT22;6804;48.774;9.174;2024-02-15T15:41:33;17.40;99.90
13464;DHT22;6804;48.774;9.174;2024-02-15T15:44:03;17.30;99.90
13464;DHT22;6804;48.774;9.174;2024-02-15T15:46:31;17.30;99.90
13464;DHT22;6804;48.774;9.174;2024-02-15T15:49:01;17.20;99.90
13464;DHT22;6804;48.774;9.174;2024-02-15T15:51:32;17.30;99.90
13464;DHT22;6804;48.774;9.174;2024-02-15T15:54:01;17.20;99.90
13464;DHT22;6804;48.774;9.174;2024-02-15T15:56:33;17.20;99.90
13464;DHT22;6804;48.774;9.174;2024-02-15T15:59:02;17.20;99.90
13464;DHT22;6804;48.774;9.174;2024-02-15T16:01:32;17.20;99.90
13464;DHT22;6804;48.774;9.174;2024-02-15T16:04:01;17.20;99.90
13464;DHT22;6804;48.774;9.174;2024-02-15T16:06:32;17.20;99.90
13464;DHT22;6804;48.774;9.174;2024-02-15T16:09:02;17.10;99.90
13464;DHT22;6804;48.774;9.174;2024-02-15T16:11:31;17.10;99.90
13464;DHT22;6804;48.774;9.174;2024-02-15T16:14:03;17.10;99.90